Time;durP1;ratioP1;P1;durP2;ratioP2;P2;SDS_P1;SDS_P2;PMS_P1;PMS_P2;Temp;Humidity;BMP_temperature;BMP_pressure;BME280_temperature;BME280_humidity;BME280_pressure;Samples;Min_cycle;Max_cycle;Signal;HPM_P1;HPM_P2
2022/01/24 00:01:18;;;;;;;;;;;2.90;99.90;;;;;;4989510;28;19921;-79
2022/01/24 00:03:45;;;;;;;;;;;2.90;99.90;;;;;;4991802;28;19945;-79
2022/01/24 00:06:14;;;;;;;;;;;2.90;99.90;;;;;;4994578;28;19925;-78
2022/01/24 00:08:39;;;;;;;;;;;2.80;99.90;;;;;;4990721;28;19921;-80
2022/01/24 00:11:09;;;;;;;;;;;2.90;99.90;;;;;;4974616;28;19922;-80
2022/01/24 00:27:04;;;;;;;;;;;2.90;99.90;;;;;;4988066;28;19914;-79
2022/01/24 00:29:30;;;;;;;;;;;2.80;99.90;;;;;;4972564;28;19945;-79
2022/01/24 00:31:56;;;;;;;;;;;2.80;99.90;;;;;;4982791;28;20304;-79
2022/01/24 00:34:23;;;;;;;;;;;2.80;99.90;;;;;;4992831;28;20068;-79
2022/01/24 00:36:50;;;;;;;;;;;2.80;99.90;;;;;;5005119;28;19937;-78
2022/01/24 00:39:16;;;;;;;;;;;2.80;99.90;;;;;;4980446;28;20300;-79
2022/01/24 00:42:05;;;;;;;;;;;2.80;99.90;;;;;;4970006;28;19925;-78
2022/01/24 00:47:29;;;;;;;;;;;2.80;99.90;;;;;;4954536;28;19918;-78
2022/01/24 00:55:21;;;;;;;;;;;2.80;99.90;;;;;;4959469;28;19969;-78
2022/01/24 00:57:46;;;;;;;;;;;2.80;99.90;;;;;;4974120;28;19910;-79
2022/01/24 01:00:13;;;;;;;;;;;2.80;99.90;;;;;;4972016;28;19922;-78
2022/01/24 01:02:38;;;;;;;;;;;2.80;99.90;;;;;;4989754;28;19958;-79
2022/01/24 01:05:14;;;;;;;;;;;2.80;99.90;;;;;;4995446;28;19913;-79
2022/01/24 01:18:38;;;;;;;;;;;2.80;99.90;;;;;;4988731;28;19914;-79
2022/01/24 01:21:09;;;;;;;;;;;2.80;99.90;;;;;;4973076;28;20513;-79
2022/01/24 01:23:37;;;;;;;;;;;2.80;99.90;;;;;;4972259;28;20017;-79
2022/01/24 01:26:07;;;;;;;;;;;2.80;99.90;;;;;;4988729;28;19922;-79
2022/01/24 01:28:34;;;;;;;;;;;2.80;99.90;;;;;;4992134;28;19929;-78
2022/01/24 01:31:05;;;;;;;;;;;2.80;99.90;;;;;;4996486;28;19918;-78
2022/01/24 01:55:07;;;;;;;;;;;2.80;99.90;;;;;;4991481;28;19957;-79
2022/01/24 01:57:22;;;;;;;;;;;2.90;99.90;;;;;;4991390;28;20380;-79
2022/01/24 01:59:48;;;;;;;;;;;2.90;99.90;;;;;;4984589;28;19918;-79
2022/01/24 02:02:14;;;;;;;;;;;2.80;99.90;;;;;;4982406;28;19925;-79
2022/01/24 02:04:40;;;;;;;;;;;2.80;99.90;;;;;;4976865;28;20368;-78
2022/01/24 02:07:10;;;;;;;;;;;2.80;99.90;;;;;;4970878;28;19973;-79
2022/01/24 02:09:35;;;;;;;;;;;2.80;99.90;;;;;;4968387;28;20304;-79
2022/01/24 02:12:01;;;;;;;;;;;2.80;99.90;;;;;;4970949;28;19918;-78
2022/01/24 02:14:34;;;;;;;;;;;2.80;99.90;;;;;;4972697;28;19926;-78
2022/01/24 02:17:05;;;;;;;;;;;2.80;99.90;;;;;;4962984;28;19914;-79
2022/01/24 02:25:00;;;;;;;;;;;2.80;99.90;;;;;;4980633;28;20013;-78
2022/01/24 02:27:32;;;;;;;;;;;2.80;99.90;;;;;;4981310;28;19937;-78
2022/01/24 02:30:26;;;;;;;;;;;2.80;99.90;;;;;;5002534;28;20389;-78
2022/01/24 02:32:55;;;;;;;;;;;2.80;99.90;;;;;;4982605;28;20346;-78
2022/01/24 02:35:20;;;;;;;;;;;2.80;99.90;;;;;;4976573;28;19965;-78
2022/01/24 02:37:46;;;;;;;;;;;2.80;99.90;;;;;;4975548;28;19968;-78
2022/01/24 02:40:18;;;;;;;;;;;2.80;99.90;;;;;;4973883;28;19969;-78
2022/01/24 02:48:33;;;;;;;;;;;2.90;99.90;;;;;;5007953;28;20100;-78
2022/01/24 02:51:34;;;;;;;;;;;2.90;99.90;;;;;;4997314;28;19972;-78
2022/01/24 02:54:00;;;;;;;;;;;2.80;99.90;;;;;;4997451;28;20017;-78
2022/01/24 02:56:25;;;;;;;;;;;2.80;99.90;;;;;;4996528;28;20009;-78
2022/01/24 02:58:51;;;;;;;;;;;2.80;99.90;;;;;;4997940;28;19924;-78
2022/01/24 03:01:17;;;;;;;;;;;2.70;99.90;;;;;;4988317;28;20410;-78
2022/01/24 03:03:43;;;;;;;;;;;2.70;99.90;;;;;;4994538;28;19917;-78
2022/01/24 03:06:09;;;;;;;;;;;2.70;99.90;;;;;;4983570;28;20436;-78
2022/01/24 03:08:37;;;;;;;;;;;2.70;99.90;;;;;;4980817;28;19922;-78
2022/01/24 03:11:03;;;;;;;;;;;2.70;99.90;;;;;;4996925;28;19918;-78
2022/01/24 03:15:56;;;;;;;;;;;2.70;99.90;;;;;;4988234;28;19972;-78
2022/01/24 03:18:22;;;;;;;;;;;2.70;99.90;;;;;;5006299;28;19988;-78
2022/01/24 03:20:48;;;;;;;;;;;2.70;99.90;;;;;;4996045;28;19961;-78
2022/01/24 03:23:14;;;;;;;;;;;2.70;99.90;;;;;;4983341;28;19921;-78
2022/01/24 03:25:40;;;;;;;;;;;2.70;99.90;;;;;;4984946;28;19922;-78
2022/01/24 03:28:06;;;;;;;;;;;2.70;99.90;;;;;;4986811;28;19930;-78
2022/01/24 03:30:32;;;;;;;;;;;2.70;99.90;;;;;;4990394;28;19976;-78
2022/01/24 03:33:00;;;;;;;;;;;2.70;99.90;;;;;;4993830;28;20052;-78
2022/01/24 03:35:26;;;;;;;;;;;2.70;99.90;;;;;;4992614;28;19984;-78
2022/01/24 03:37:52;;;;;;;;;;;2.70;99.90;;;;;;4992227;28;19941;-76
2022/01/24 03:40:17;;;;;;;;;;;2.70;99.90;;;;;;4981763;28;19910;-76
2022/01/24 03:42:43;;;;;;;;;;;2.70;99.90;;;;;;4993305;28;19930;-76
2022/01/24 03:45:10;;;;;;;;;;;2.70;99.90;;;;;;4982501;28;20402;-76
2022/01/24 03:50:06;;;;;;;;;;;2.70;99.90;;;;;;5000518;28;19925;-76
2022/01/24 03:52:31;;;;;;;;;;;2.70;99.90;;;;;;4989046;28;20281;-76
2022/01/24 03:54:58;;;;;;;;;;;2.70;99.90;;;;;;5001578;28;20009;-76
2022/01/24 03:57:24;;;;;;;;;;;2.70;99.90;;;;;;4985045;28;20181;-76
2022/01/24 03:59:50;;;;;;;;;;;2.60;99.90;;;;;;4984347;28;19922;-76
2022/01/24 04:02:17;;;;;;;;;;;2.70;99.90;;;;;;4982588;28;20415;-76
2022/01/24 04:04:43;;;;;;;;;;;2.60;99.90;;;;;;4992203;28;19965;-75
2022/01/24 04:07:09;;;;;;;;;;;2.70;99.90;;;;;;4988154;28;20369;-76
2022/01/24 04:09:35;;;;;;;;;;;2.60;99.90;;;;;;4992134;28;19913;-76
2022/01/24 04:12:02;;;;;;;;;;;2.70;99.90;;;;;;4996591;28;19984;-76
2022/01/24 04:17:42;;;;;;;;;;;2.70;99.90;;;;;;4988787;28;19964;-76
2022/01/24 04:22:10;;;;;;;;;;;2.60;99.90;;;;;;4991626;28;20024;-76
2022/01/24 04:24:36;;;;;;;;;;;2.70;99.90;;;;;;4982400;28;20285;-76
2022/01/24 04:27:02;;;;;;;;;;;2.70;99.90;;;;;;4988074;28;19922;-76
2022/01/24 04:29:28;;;;;;;;;;;2.60;99.90;;;;;;4990998;28;20348;-76
2022/01/24 04:31:53;;;;;;;;;;;2.70;99.90;;;;;;5000456;28;19914;-76
2022/01/24 04:34:19;;;;;;;;;;;2.70;99.90;;;;;;4972640;28;19925;-76
2022/01/24 04:36:44;;;;;;;;;;;2.60;99.90;;;;;;4999504;28;19926;-76
2022/01/24 04:39:10;;;;;;;;;;;2.70;99.90;;;;;;4986187;28;19922;-75
2022/01/24 04:41:40;;;;;;;;;;;2.60;99.90;;;;;;5008092;28;20340;-76
2022/01/24 04:52:31;;;;;;;;;;;2.70;99.90;;;;;;4977478;28;19919;-76
2022/01/24 04:54:57;;;;;;;;;;;2.70;99.90;;;;;;4978044;28;19918;-76
2022/01/24 04:57:23;;;;;;;;;;;2.80;99.90;;;;;;4973532;28;19925;-76
2022/01/24 04:59:50;;;;;;;;;;;2.80;99.90;;;;;;4981814;28;19917;-76
2022/01/24 05:02:17;;;;;;;;;;;2.80;99.90;;;;;;4977019;28;19949;-76
2022/01/24 05:04:43;;;;;;;;;;;2.70;99.90;;;;;;4975741;28;19924;-76
2022/01/24 05:07:08;;;;;;;;;;;2.70;99.90;;;;;;4975817;28;19910;-76
2022/01/24 05:09:40;;;;;;;;;;;2.80;99.90;;;;;;4991922;28;20311;-76
2022/01/24 05:12:36;;;;;;;;;;;2.70;99.90;;;;;;4971495;28;19925;-76
2022/01/24 05:25:49;;;;;;;;;;;2.70;99.90;;;;;;4978589;28;19918;-76
2022/01/24 05:28:15;;;;;;;;;;;2.70;99.90;;;;;;4980271;28;19928;-76
2022/01/24 05:30:41;;;;;;;;;;;2.70;99.90;;;;;;4957315;28;19926;-76
2022/01/24 05:33:06;;;;;;;;;;;2.70;99.90;;;;;;4970489;28;19918;-76
2022/01/24 05:35:32;;;;;;;;;;;2.80;99.90;;;;;;4983507;28;19926;-76
2022/01/24 05:37:57;;;;;;;;;;;2.70;99.90;;;;;;4972399;28;20380;-76
2022/01/24 05:40:23;;;;;;;;;;;2.70;99.90;;;;;;4971858;28;19919;-76
2022/01/24 05:42:49;;;;;;;;;;;2.70;99.90;;;;;;4971258;28;19918;-76
2022/01/24 05:45:14;;;;;;;;;;;2.70;99.90;;;;;;4995077;28;19968;-76
2022/01/24 05:47:40;;;;;;;;;;;2.70;99.90;;;;;;4991213;28;20371;-76
2022/01/24 05:50:06;;;;;;;;;;;2.70;99.90;;;;;;4997887;28;19917;-76
2022/01/24 05:52:31;;;;;;;;;;;2.70;99.90;;;;;;4973812;28;19945;-76
2022/01/24 05:54:57;;;;;;;;;;;2.70;99.90;;;;;;4971924;28;20017;-76
2022/01/24 05:57:22;;;;;;;;;;;2.70;99.90;;;;;;4986205;28;20456;-76
2022/01/24 05:59:48;;;;;;;;;;;2.70;99.90;;;;;;4987202;28;19965;-76
2022/01/24 06:02:14;;;;;;;;;;;2.70;99.90;;;;;;4977200;28;19919;-76
2022/01/24 06:04:39;;;;;;;;;;;2.70;99.90;;;;;;4981896;28;19918;-76
2022/01/24 06:07:05;;;;;;;;;;;2.70;99.90;;;;;;4975121;28;19918;-76
2022/01/24 06:09:31;;;;;;;;;;;2.70;99.90;;;;;;4962545;28;20508;-76
2022/01/24 06:11:56;;;;;;;;;;;2.70;99.90;;;;;;4972762;28;19918;-75
2022/01/24 06:14:22;;;;;;;;;;;2.70;99.90;;;;;;4987913;28;19973;-77
2022/01/24 06:16:48;;;;;;;;;;;2.70;99.90;;;;;;4977713;28;19941;-76
2022/01/24 06:19:13;;;;;;;;;;;2.70;99.90;;;;;;4987128;28;19974;-76
2022/01/24 06:21:40;;;;;;;;;;;2.70;99.90;;;;;;4987649;28;19918;-76
2022/01/24 06:24:06;;;;;;;;;;;2.70;99.90;;;;;;4970188;28;19932;-77
2022/01/24 06:26:31;;;;;;;;;;;2.70;99.90;;;;;;4971079;28;20428;-76
2022/01/24 06:28:57;;;;;;;;;;;2.80;99.90;;;;;;4974429;28;20001;-76
2022/01/24 06:31:23;;;;;;;;;;;2.80;99.90;;;;;;5007349;28;19914;-76
2022/01/24 06:33:48;;;;;;;;;;;2.70;99.90;;;;;;4991525;28;19921;-76
2022/01/24 06:36:15;;;;;;;;;;;2.70;99.90;;;;;;5007238;28;20396;-75
2022/01/24 06:38:40;;;;;;;;;;;2.70;99.90;;;;;;4992047;28;19914;-76
2022/01/24 06:41:06;;;;;;;;;;;2.70;99.90;;;;;;4999605;28;19941;-76
2022/01/24 06:43:31;;;;;;;;;;;2.70;99.90;;;;;;4972738;28;20460;-76
2022/01/24 06:45:57;;;;;;;;;;;2.70;99.90;;;;;;4969029;28;19922;-76
2022/01/24 06:48:23;;;;;;;;;;;2.70;99.90;;;;;;4972046;28;19946;-76
2022/01/24 06:50:49;;;;;;;;;;;2.70;99.90;;;;;;4972289;28;19914;-76
2022/01/24 06:53:15;;;;;;;;;;;2.70;99.90;;;;;;4971204;28;20417;-76
2022/01/24 06:55:41;;;;;;;;;;;2.70;99.90;;;;;;4973009;28;19970;-78
2022/01/24 06:58:07;;;;;;;;;;;2.70;99.90;;;;;;4969777;28;20399;-76
2022/01/24 07:00:33;;;;;;;;;;;2.70;99.90;;;;;;4971217;28;19918;-75
2022/01/24 07:02:59;;;;;;;;;;;2.70;99.90;;;;;;4966817;28;19921;-76
2022/01/24 07:05:25;;;;;;;;;;;2.70;99.90;;;;;;4959270;28;19914;-76
2022/01/24 07:07:51;;;;;;;;;;;2.70;99.90;;;;;;4967944;28;19944;-76
2022/01/24 07:10:16;;;;;;;;;;;2.70;99.90;;;;;;4966071;28;20373;-77
2022/01/24 07:12:42;;;;;;;;;;;2.70;99.90;;;;;;4974293;28;19918;-76
2022/01/24 07:15:12;;;;;;;;;;;2.70;99.90;;;;;;4955564;28;20273;-76
2022/01/24 07:20:22;;;;;;;;;;;2.70;99.90;;;;;;4962479;28;19921;-75
2022/01/24 07:22:48;;;;;;;;;;;2.70;99.90;;;;;;4975240;28;19911;-77
2022/01/24 07:25:13;;;;;;;;;;;2.80;99.90;;;;;;4989709;28;19961;-76
2022/01/24 07:27:39;;;;;;;;;;;2.80;99.90;;;;;;4958529;28;20460;-76
2022/01/24 07:30:06;;;;;;;;;;;2.80;99.90;;;;;;4969033;28;20409;-75
2022/01/24 07:32:32;;;;;;;;;;;2.80;99.90;;;;;;4964949;28;20008;-76
2022/01/24 07:34:58;;;;;;;;;;;2.70;99.90;;;;;;4968174;28;19977;-77
2022/01/24 07:37:24;;;;;;;;;;;2.80;99.90;;;;;;4968592;28;19914;-76
2022/01/24 07:39:51;;;;;;;;;;;2.80;99.90;;;;;;4968347;28;20021;-75
2022/01/24 07:42:27;;;;;;;;;;;2.80;99.90;;;;;;4973746;28;19918;-75
2022/01/24 07:44:53;;;;;;;;;;;2.80;99.90;;;;;;4967724;28;19914;-76
2022/01/24 07:47:18;;;;;;;;;;;2.80;99.90;;;;;;4980308;28;20018;-75
2022/01/24 07:49:44;;;;;;;;;;;2.80;99.90;;;;;;4983994;28;20304;-75
2022/01/24 07:52:10;;;;;;;;;;;2.80;99.90;;;;;;4973370;28;20016;-77
2022/01/24 07:54:35;;;;;;;;;;;2.80;99.90;;;;;;4973176;28;19922;-75
2022/01/24 07:57:01;;;;;;;;;;;2.80;99.90;;;;;;4972573;28;20308;-77
2022/01/24 07:59:27;;;;;;;;;;;2.90;99.90;;;;;;4988376;28;19914;-77
2022/01/24 08:01:52;;;;;;;;;;;2.90;99.90;;;;;;4972666;28;20439;-76
2022/01/24 08:04:18;;;;;;;;;;;2.90;99.90;;;;;;4970341;28;19926;-77
2022/01/24 08:06:46;;;;;;;;;;;3.00;99.90;;;;;;4954710;28;19949;-76
2022/01/24 08:09:12;;;;;;;;;;;3.10;99.90;;;;;;4980919;28;19918;-77
2022/01/24 08:11:37;;;;;;;;;;;3.10;99.90;;;;;;4952568;28;19918;-77
2022/01/24 08:14:03;;;;;;;;;;;3.10;99.90;;;;;;4938146;28;19926;-76
2022/01/24 08:16:28;;;;;;;;;;;3.10;99.90;;;;;;4956954;28;19922;-77
2022/01/24 08:18:56;;;;;;;;;;;3.20;99.90;;;;;;4988224;23;20945;-80
2022/01/24 08:21:21;;;;;;;;;;;3.20;99.90;;;;;;5003756;28;20335;-79
2022/01/24 08:23:47;;;;;;;;;;;3.20;99.90;;;;;;4976748;28;19938;-80
2022/01/24 08:26:13;;;;;;;;;;;3.20;99.90;;;;;;4987047;28;19914;-80
2022/01/24 08:28:39;;;;;;;;;;;3.20;99.90;;;;;;4988234;28;19925;-79
2022/01/24 08:31:05;;;;;;;;;;;3.20;99.90;;;;;;4979851;28;19914;-80
2022/01/24 08:33:30;;;;;;;;;;;3.20;99.90;;;;;;4958336;28;20379;-78
2022/01/24 08:35:57;;;;;;;;;;;3.20;99.90;;;;;;4971978;28;20315;-79
2022/01/24 08:38:23;;;;;;;;;;;3.20;99.90;;;;;;4977827;28;20023;-79
2022/01/24 08:40:52;;;;;;;;;;;3.10;99.90;;;;;;4978131;28;19976;-79
2022/01/24 08:43:49;;;;;;;;;;;3.20;99.90;;;;;;4969689;28;19938;-79
2022/01/24 08:46:15;;;;;;;;;;;3.20;99.90;;;;;;4977553;28;19997;-79
2022/01/24 08:48:42;;;;;;;;;;;3.30;99.90;;;;;;4961778;28;20448;-79
2022/01/24 08:51:08;;;;;;;;;;;3.30;99.90;;;;;;4961014;28;19974;-80
2022/01/24 08:53:34;;;;;;;;;;;3.30;99.90;;;;;;4980663;28;19922;-80
2022/01/24 08:56:05;;;;;;;;;;;3.40;99.90;;;;;;4979394;28;19926;-80
2022/01/24 08:58:31;;;;;;;;;;;3.50;99.90;;;;;;4961910;28;19925;-80
2022/01/24 09:00:57;;;;;;;;;;;3.50;99.90;;;;;;4968547;28;19957;-80
2022/01/24 09:03:23;;;;;;;;;;;3.50;99.90;;;;;;4940234;28;19918;-80
2022/01/24 09:05:52;;;;;;;;;;;3.50;99.90;;;;;;4955773;28;19926;-80
2022/01/24 09:08:18;;;;;;;;;;;3.50;99.90;;;;;;4968854;28;19914;-80
2022/01/24 09:10:46;;;;;;;;;;;3.50;99.90;;;;;;4968986;28;20332;-79
2022/01/24 09:13:12;;;;;;;;;;;3.50;99.90;;;;;;4952989;28;19927;-81
2022/01/24 09:15:37;;;;;;;;;;;3.50;99.90;;;;;;4961685;28;19926;-81
2022/01/24 09:18:03;;;;;;;;;;;3.50;99.90;;;;;;4956448;28;19915;-80
2022/01/24 09:20:29;;;;;;;;;;;3.50;99.90;;;;;;4940366;28;19949;-80
2022/01/24 09:22:54;;;;;;;;;;;3.60;99.90;;;;;;4963614;28;19918;-80
2022/01/24 09:25:20;;;;;;;;;;;3.60;99.90;;;;;;4958993;28;19941;-80
2022/01/24 09:27:47;;;;;;;;;;;3.60;99.90;;;;;;4958047;28;19985;-79
2022/01/24 09:30:13;;;;;;;;;;;3.70;99.90;;;;;;4976893;28;19910;-82
2022/01/24 09:32:39;;;;;;;;;;;3.70;99.90;;;;;;4959382;28;20010;-81
2022/01/24 09:35:07;;;;;;;;;;;3.70;99.90;;;;;;4939641;29;19961;-81
2022/01/24 09:37:33;;;;;;;;;;;3.70;99.90;;;;;;4962155;28;19997;-81
2022/01/24 09:39:58;;;;;;;;;;;3.70;99.90;;;;;;4980372;28;20005;-80
2022/01/24 09:42:24;;;;;;;;;;;3.60;99.90;;;;;;4957754;28;19914;-79
2022/01/24 09:44:50;;;;;;;;;;;3.60;99.90;;;;;;4974656;28;19918;-82
2022/01/24 09:47:16;;;;;;;;;;;3.60;99.90;;;;;;4959742;28;19922;-81
2022/01/24 09:49:42;;;;;;;;;;;3.60;99.90;;;;;;4972325;28;19915;-79
2022/01/24 09:52:08;;;;;;;;;;;3.70;99.90;;;;;;4953917;29;19919;-80
2022/01/24 09:54:34;;;;;;;;;;;3.70;99.90;;;;;;4956731;28;20029;-80
2022/01/24 09:56:59;;;;;;;;;;;3.80;99.90;;;;;;4956623;28;19918;-80
2022/01/24 09:59:25;;;;;;;;;;;3.80;99.90;;;;;;4963000;28;19914;-80
2022/01/24 10:01:50;;;;;;;;;;;3.90;99.90;;;;;;4965779;28;19922;-81
2022/01/24 10:04:17;;;;;;;;;;;3.80;99.90;;;;;;4974324;28;20008;-81
2022/01/24 10:06:56;;;;;;;;;;;3.90;99.90;;;;;;4941404;28;19918;-81
2022/01/24 10:09:37;;;;;;;;;;;3.90;99.90;;;;;;4973399;28;20009;-81
2022/01/24 10:12:15;;;;;;;;;;;3.90;99.90;;;;;;4940028;28;19953;-80
2022/01/24 10:17:27;;;;;;;;;;;3.90;99.90;;;;;;4968708;28;20391;-80
2022/01/24 10:19:53;;;;;;;;;;;3.90;99.90;;;;;;4972656;28;19918;-81
2022/01/24 10:22:25;;;;;;;;;;;3.90;99.90;;;;;;4973393;28;19914;-81
2022/01/24 10:24:54;;;;;;;;;;;3.90;99.90;;;;;;4972067;28;19926;-81
2022/01/24 10:27:24;;;;;;;;;;;3.90;99.90;;;;;;4964429;28;19950;-80
2022/01/24 10:29:56;;;;;;;;;;;3.80;99.90;;;;;;4959303;28;19949;-81
2022/01/24 10:32:39;;;;;;;;;;;3.80;99.90;;;;;;4965948;28;19964;-80
2022/01/24 10:35:23;;;;;;;;;;;3.80;99.90;;;;;;4977503;28;19972;-81
2022/01/24 10:37:52;;;;;;;;;;;3.80;99.90;;;;;;4965137;28;19921;-82
2022/01/24 10:40:34;;;;;;;;;;;3.80;99.90;;;;;;4971178;28;20615;-81
2022/01/24 10:43:19;;;;;;;;;;;3.80;99.90;;;;;;4969029;28;19918;-81
2022/01/24 10:45:45;;;;;;;;;;;3.90;99.90;;;;;;4963657;28;19921;-82
2022/01/24 10:48:12;;;;;;;;;;;3.90;99.90;;;;;;4967707;28;19914;-83
2022/01/24 10:50:37;;;;;;;;;;;4.00;99.90;;;;;;4975542;28;19914;-82
2022/01/24 10:53:11;;;;;;;;;;;4.00;99.90;;;;;;4957004;28;19918;-82
2022/01/24 10:55:38;;;;;;;;;;;4.00;99.90;;;;;;4957048;28;19922;-80
2022/01/24 10:58:04;;;;;;;;;;;4.00;99.90;;;;;;4975457;28;20405;-80
2022/01/24 11:00:30;;;;;;;;;;;4.00;99.90;;;;;;4948698;28;19922;-82
2022/01/24 11:02:59;;;;;;;;;;;4.00;99.90;;;;;;4973442;28;20362;-82
2022/01/24 11:05:34;;;;;;;;;;;4.00;99.90;;;;;;4969938;28;19914;-83
2022/01/24 11:08:03;;;;;;;;;;;4.00;99.90;;;;;;4953013;28;19918;-83
2022/01/24 11:10:33;;;;;;;;;;;3.90;99.90;;;;;;4953554;28;20207;-84
2022/01/24 11:12:59;;;;;;;;;;;3.90;99.90;;;;;;4971170;28;20006;-79
2022/01/24 11:15:25;;;;;;;;;;;3.80;99.90;;;;;;4957744;28;19958;-80
2022/01/24 11:17:52;;;;;;;;;;;3.90;99.90;;;;;;4971769;28;19915;-79
2022/01/24 11:20:19;;;;;;;;;;;3.80;99.90;;;;;;4938438;28;20339;-83
2022/01/24 11:22:46;;;;;;;;;;;3.80;99.90;;;;;;4976959;28;20045;-81
2022/01/24 11:25:12;;;;;;;;;;;3.80;99.90;;;;;;4953365;28;19965;-80
2022/01/24 11:27:39;;;;;;;;;;;3.90;99.90;;;;;;4962821;28;19921;-82
2022/01/24 11:30:07;;;;;;;;;;;3.90;99.90;;;;;;4961889;28;19980;-82
2022/01/24 11:32:47;;;;;;;;;;;3.90;99.90;;;;;;4939805;28;20372;-80
2022/01/24 11:35:27;;;;;;;;;;;3.90;99.90;;;;;;4957446;28;19977;-82
2022/01/24 11:37:52;;;;;;;;;;;3.90;99.90;;;;;;4954985;28;19914;-78
2022/01/24 11:40:20;;;;;;;;;;;3.90;99.90;;;;;;4955976;28;19969;-80
2022/01/24 11:42:47;;;;;;;;;;;3.90;99.90;;;;;;4976995;28;19914;-81
2022/01/24 11:45:16;;;;;;;;;;;3.80;99.90;;;;;;4955387;28;19924;-81
2022/01/24 11:47:42;;;;;;;;;;;3.80;99.90;;;;;;4971196;28;20400;-80
2022/01/24 11:50:26;;;;;;;;;;;3.80;99.90;;;;;;4973306;28;20008;-81
2022/01/24 11:52:54;;;;;;;;;;;3.80;99.90;;;;;;4955336;28;20380;-81
2022/01/24 11:55:31;;;;;;;;;;;3.80;99.90;;;;;;4940780;28;20025;-81
2022/01/24 11:57:58;;;;;;;;;;;3.80;99.90;;;;;;4956486;28;19914;-80
2022/01/24 12:00:29;;;;;;;;;;;3.80;99.90;;;;;;4938104;29;19925;-81
2022/01/24 12:02:57;;;;;;;;;;;3.80;99.90;;;;;;4921747;28;19968;-81
2022/01/24 12:05:28;;;;;;;;;;;3.70;99.90;;;;;;4929466;28;19919;-81
2022/01/24 12:07:57;;;;;;;;;;;3.70;99.90;;;;;;4970550;28;19918;-82
2022/01/24 12:12:55;;;;;;;;;;;3.70;99.90;;;;;;4967677;28;19915;-82
2022/01/24 12:15:36;;;;;;;;;;;3.70;99.90;;;;;;4969483;28;19983;-82
2022/01/24 12:18:06;;;;;;;;;;;3.70;99.90;;;;;;4987384;28;19921;-82
2022/01/24 12:20:31;;;;;;;;;;;3.80;99.90;;;;;;4972753;28;19922;-82
2022/01/24 12:22:57;;;;;;;;;;;3.80;99.90;;;;;;4973279;28;20422;-82
2022/01/24 12:25:42;;;;;;;;;;;3.90;99.90;;;;;;4941264;28;19914;-81
2022/01/24 12:28:18;;;;;;;;;;;3.90;99.90;;;;;;4973451;28;19914;-82
2022/01/24 12:31:04;;;;;;;;;;;3.90;99.90;;;;;;4954361;28;20341;-81
2022/01/24 12:33:36;;;;;;;;;;;3.90;99.90;;;;;;4938549;29;19918;-81
2022/01/24 12:36:03;;;;;;;;;;;3.90;99.90;;;;;;4970510;28;19923;-81
2022/01/24 12:38:42;;;;;;;;;;;3.80;99.90;;;;;;4954610;28;20009;-82
2022/01/24 12:41:26;;;;;;;;;;;3.80;99.90;;;;;;4938940;28;20436;-82
2022/01/24 12:43:56;;;;;;;;;;;3.80;99.90;;;;;;4963728;28;19972;-82
2022/01/24 12:46:25;;;;;;;;;;;3.80;99.90;;;;;;4974254;28;20052;-82
2022/01/24 12:48:51;;;;;;;;;;;3.80;99.90;;;;;;4941142;28;20400;-83
2022/01/24 12:51:20;;;;;;;;;;;3.70;99.90;;;;;;4957906;28;20400;-82
2022/01/24 12:53:45;;;;;;;;;;;3.60;99.90;;;;;;4973831;28;19914;-81
2022/01/24 12:56:13;;;;;;;;;;;3.60;99.90;;;;;;4972965;28;19919;-82
2022/01/24 12:58:40;;;;;;;;;;;3.70;99.90;;;;;;4971814;28;19914;-80
2022/01/24 13:01:16;;;;;;;;;;;3.70;99.90;;;;;;4971380;28;19918;-81
2022/01/24 13:03:51;;;;;;;;;;;3.60;99.90;;;;;;4953279;28;19973;-80
2022/01/24 13:06:17;;;;;;;;;;;3.60;99.90;;;;;;4973848;28;20017;-80
2022/01/24 13:08:55;;;;;;;;;;;3.70;99.90;;;;;;4960427;28;19969;-79
2022/01/24 13:11:21;;;;;;;;;;;3.70;99.90;;;;;;4966677;28;20065;-80
2022/01/24 13:13:59;;;;;;;;;;;3.80;99.90;;;;;;4971619;28;19945;-80
2022/01/24 13:22:15;;;;;;;;;;;3.80;99.90;;;;;;4987064;28;19914;-79
2022/01/24 13:24:59;;;;;;;;;;;3.80;99.90;;;;;;4973256;28;19914;-79
2022/01/24 13:27:35;;;;;;;;;;;3.80;99.90;;;;;;4966485;28;20456;-79
2022/01/24 13:30:01;;;;;;;;;;;3.70;99.90;;;;;;4972177;28;19918;-82
2022/01/24 13:32:51;;;;;;;;;;;3.60;99.90;;;;;;4952610;28;19922;-84
2022/01/24 13:35:16;;;;;;;;;;;3.60;99.90;;;;;;4944569;28;20296;-81
2022/01/24 13:37:42;;;;;;;;;;;3.70;99.90;;;;;;4966871;28;19961;-82
2022/01/24 13:40:08;;;;;;;;;;;3.70;99.90;;;;;;4966762;28;19914;-81
2022/01/24 13:42:34;;;;;;;;;;;3.60;99.90;;;;;;4937017;28;19926;-85
2022/01/24 13:45:00;;;;;;;;;;;3.60;99.90;;;;;;4952163;28;20543;-83
2022/01/24 13:47:26;;;;;;;;;;;3.60;99.90;;;;;;4936397;28;20012;-81
2022/01/24 13:49:51;;;;;;;;;;;3.60;99.90;;;;;;4951933;28;19961;-84
2022/01/24 13:52:18;;;;;;;;;;;3.60;99.90;;;;;;4960087;28;19922;-81
2022/01/24 13:54:44;;;;;;;;;;;3.60;99.90;;;;;;4949094;28;19925;-83
2022/01/24 13:57:15;;;;;;;;;;;3.60;99.90;;;;;;4934305;28;19945;-85
2022/01/24 13:59:42;;;;;;;;;;;3.60;99.90;;;;;;4965082;28;19918;-83
2022/01/24 14:02:26;;;;;;;;;;;3.60;99.90;;;;;;4942149;28;19918;-85
2022/01/24 14:04:53;;;;;;;;;;;3.60;99.90;;;;;;4952905;28;19918;-82
2022/01/24 14:07:19;;;;;;;;;;;3.60;99.90;;;;;;4952558;28;19918;-84
2022/01/24 14:09:52;;;;;;;;;;;3.50;99.90;;;;;;4966558;28;19914;-84
2022/01/24 14:12:19;;;;;;;;;;;3.50;99.90;;;;;;4968134;28;20563;-82
2022/01/24 14:14:49;;;;;;;;;;;3.50;99.90;;;;;;4945384;28;19950;-82
2022/01/24 14:19:44;;;;;;;;;;;3.50;99.90;;;;;;4971767;28;19918;-81
2022/01/24 14:22:14;;;;;;;;;;;3.50;99.90;;;;;;4973530;28;19926;-81
2022/01/24 14:24:54;;;;;;;;;;;3.60;99.90;;;;;;4967631;28;19921;-81
2022/01/24 14:27:35;;;;;;;;;;;3.50;99.90;;;;;;4964458;28;19918;-81
2022/01/24 14:30:09;;;;;;;;;;;3.60;99.90;;;;;;4974198;28;19965;-79
2022/01/24 14:32:38;;;;;;;;;;;3.50;99.90;;;;;;4971328;28;19914;-79
2022/01/24 14:35:08;;;;;;;;;;;3.50;99.90;;;;;;4970746;28;19934;-79
2022/01/24 14:37:53;;;;;;;;;;;3.50;99.90;;;;;;4971734;28;19926;-79
2022/01/24 14:40:37;;;;;;;;;;;3.50;99.90;;;;;;5502179;23;19952;-85
2022/01/24 14:45:47;;;;;;;;;;;3.50;99.90;;;;;;4974228;28;19918;-85
2022/01/24 14:48:12;;;;;;;;;;;3.50;99.90;;;;;;4975217;28;19964;-85
2022/01/24 14:50:38;;;;;;;;;;;3.50;99.90;;;;;;4993961;28;19976;-84
2022/01/24 14:53:07;;;;;;;;;;;3.40;99.90;;;;;;4967055;28;20538;-85
2022/01/24 14:55:33;;;;;;;;;;;3.40;99.90;;;;;;4970738;28;19961;-85
2022/01/24 14:57:58;;;;;;;;;;;3.30;99.90;;;;;;4986988;28;19961;-84
2022/01/24 15:00:24;;;;;;;;;;;3.30;99.90;;;;;;4953244;28;19938;-84
2022/01/24 15:02:50;;;;;;;;;;;3.30;99.90;;;;;;4974193;28;19921;-83
2022/01/24 15:05:19;;;;;;;;;;;3.30;99.90;;;;;;4972935;28;19926;-84
2022/01/24 15:07:44;;;;;;;;;;;3.30;99.90;;;;;;4972839;28;19980;-83
2022/01/24 15:10:10;;;;;;;;;;;3.30;99.90;;;;;;4987800;28;20391;-83
2022/01/24 15:12:42;;;;;;;;;;;3.30;99.90;;;;;;4973876;28;20281;-84
2022/01/24 15:25:50;;;;;;;;;;;3.30;99.90;;;;;;4972324;28;19928;-87
2022/01/24 15:28:17;;;;;;;;;;;3.30;99.90;;;;;;4981460;28;19922;-87
2022/01/24 15:30:43;;;;;;;;;;;3.40;99.90;;;;;;4959485;28;19915;-87
2022/01/24 15:33:09;;;;;;;;;;;3.50;99.90;;;;;;4989322;28;19914;-86
2022/01/24 15:35:35;;;;;;;;;;;3.50;99.90;;;;;;4959698;28;20288;-86
2022/01/24 15:38:04;;;;;;;;;;;3.40;99.90;;;;;;4959381;28;19914;-87
2022/01/24 15:40:34;;;;;;;;;;;3.40;99.90;;;;;;4983911;28;20504;-88
2022/01/24 15:45:32;;;;;;;;;;;3.30;99.90;;;;;;4973549;28;20017;-88
2022/01/24 15:47:58;;;;;;;;;;;3.40;99.90;;;;;;4992730;28;19914;-89
2022/01/24 15:50:24;;;;;;;;;;;3.40;99.90;;;;;;4977023;28;19949;-85
2022/01/24 15:52:51;;;;;;;;;;;3.40;99.90;;;;;;4954948;28;19953;-88
2022/01/24 15:55:21;;;;;;;;;;;3.40;99.90;;;;;;4950413;28;20054;-85
2022/01/24 15:57:50;;;;;;;;;;;3.40;99.90;;;;;;4973149;28;19914;-86
2022/01/24 16:00:18;;;;;;;;;;;3.30;99.90;;;;;;4971638;28;20002;-88
2022/01/24 16:02:44;;;;;;;;;;;3.30;99.90;;;;;;4968431;28;19953;-87
2022/01/24 16:05:11;;;;;;;;;;;3.30;99.90;;;;;;4951262;28;19925;-88
2022/01/24 16:07:38;;;;;;;;;;;3.30;99.90;;;;;;4956574;28;19918;-88
2022/01/24 16:10:09;;;;;;;;;;;3.30;99.90;;;;;;4971359;28;19921;-88
2022/01/24 16:12:34;;;;;;;;;;;3.30;99.90;;;;;;4950683;28;19980;-88
2022/01/24 16:15:00;;;;;;;;;;;3.20;99.90;;;;;;4984602;28;19930;-88
2022/01/24 16:17:25;;;;;;;;;;;3.30;99.90;;;;;;4957998;28;19968;-88
2022/01/24 16:19:54;;;;;;;;;;;3.30;99.90;;;;;;4953086;28;19914;-87
2022/01/24 16:22:46;;;;;;;;;;;3.30;99.90;;;;;;4969204;28;20001;-88
2022/01/24 16:27:47;;;;;;;;;;;3.30;99.90;;;;;;4940976;28;19922;-90
2022/01/24 16:30:13;;;;;;;;;;;3.30;99.90;;;;;;4956127;28;19918;-89
2022/01/24 16:32:39;;;;;;;;;;;3.40;99.90;;;;;;4956321;28;19918;-89
2022/01/24 16:35:05;;;;;;;;;;;3.40;99.90;;;;;;4941189;28;20449;-89
2022/01/24 16:37:35;;;;;;;;;;;3.30;99.90;;;;;;4972301;28;19965;-89
2022/01/24 16:40:06;;;;;;;;;;;3.20;99.90;;;;;;4973078;28;20531;-88
2022/01/24 16:42:36;;;;;;;;;;;3.10;99.90;;;;;;4972523;28;20269;-89
2022/01/24 16:47:01;;;;;;;;;;;3.20;99.90;;;;;;4956028;28;19922;-88
2022/01/24 16:47:48;;;;;;;;;;;3.10;99.90;;;;;;4986111;28;19921;-90